sensor_id;sensor_type;location;lat;lon;timestamp;pressure;altitude;pressure_sealevel;temperature;humidity
78835;BME280;68187;42.682;23.352;2023-05-28T00:00:42;95049.16;;;15.21;77.91
78835;BME280;68187;42.682;23.352;2023-05-28T00:03:10;95065.72;;;15.32;78.30
78835;BME280;68187;42.682;23.352;2023-05-28T00:05:38;95067.88;;;15.30;79.00
78835;BME280;68187;42.682;23.352;2023-05-28T00:08:05;95053.09;;;15.24;78.46
78835;BME280;68187;42.682;23.352;2023-05-28T00:10:31;95067.88;;;15.30;77.94
78835;BME280;68187;42.682;23.352;2023-05-28T00:12:58;95064.63;;;15.33;77.83
78835;BME280;68187;42.682;23.352;2023-05-28T00:15:25;95060.38;;;15.32;77.97
78835;BME280;68187;42.682;23.352;2023-05-28T00:17:52;95073.59;;;15.37;77.34
78835;BME280;68187;42.682;23.352;2023-05-28T00:20:19;95069.66;;;15.34;77.59
78835;BME280;68187;42.682;23.352;2023-05-28T00:22:47;95066.91;;;15.26;78.38
78835;BME280;68187;42.682;23.352;2023-05-28T00:25:14;95054.16;;;15.23;77.77
78835;BME280;68187;42.682;23.352;2023-05-28T00:27:41;95059.41;;;15.28;77.39
78835;BME280;68187;42.682;23.352;2023-05-28T00:30:08;95051.72;;;15.26;77.37
78835;BME280;68187;42.682;23.352;2023-05-28T00:32:34;95054.16;;;15.23;77.82
78835;BME280;68187;42.682;23.352;2023-05-28T00:35:01;95049.94;;;15.22;78.16
78835;BME280;68187;42.682;23.352;2023-05-28T00:37:28;95049.25;;;15.16;78.33
78835;BME280;68187;42.682;23.352;2023-05-28T00:39:56;95047.06;;;15.18;79.02
78835;BME280;68187;42.682;23.352;2023-05-28T00:42:22;95047.28;;;15.22;78.16
78835;BME280;68187;42.682;23.352;2023-05-28T00:44:49;95045.69;;;15.21;78.28
78835;BME280;68187;42.682;23.352;2023-05-28T00:47:16;95048.84;;;15.23;78.30
78835;BME280;68187;42.682;23.352;2023-05-28T00:49:43;95048.53;;;15.24;77.86
78835;BME280;68187;42.682;23.352;2023-05-28T00:52:11;95041.66;;;15.23;78.37
78835;BME280;68187;42.682;23.352;2023-05-28T00:54:37;95041.44;;;15.20;78.41
78835;BME280;68187;42.682;23.352;2023-05-28T00:57:06;95043.91;;;15.16;78.91
78835;BME280;68187;42.682;23.352;2023-05-28T00:59:33;95032.78;;;15.14;79.12
78835;BME280;68187;42.682;23.352;2023-05-28T01:02:01;95051.31;;;15.19;78.78
78835;BME280;68187;42.682;23.352;2023-05-28T01:04:27;95035.84;;;15.08;79.36
78835;BME280;68187;42.682;23.352;2023-05-28T01:06:54;95046.56;;;15.02;79.40
78835;BME280;68187;42.682;23.352;2023-05-28T01:09:22;95035.22;;;14.97;79.99
78835;BME280;68187;42.682;23.352;2023-05-28T01:11:50;95025.69;;;14.96;79.42
78835;BME280;68187;42.682;23.352;2023-05-28T01:14:20;95031.78;;;14.96;78.98
78835;BME280;68187;42.682;23.352;2023-05-28T01:16:47;95027.06;;;14.93;78.74
78835;BME280;68187;42.682;23.352;2023-05-28T01:19:16;95023.81;;;14.83;79.47
78835;BME280;68187;42.682;23.352;2023-05-28T01:21:45;95028.00;;;14.70;80.11
78835;BME280;68187;42.682;23.352;2023-05-28T01:24:14;95024.84;;;14.68;80.38
78835;BME280;68187;42.682;23.352;2023-05-28T01:26:41;95022.75;;;14.65;80.37
78835;BME280;68187;42.682;23.352;2023-05-28T01:29:14;95019.72;;;14.58;80.79
78835;BME280;68187;42.682;23.352;2023-05-28T01:31:41;95029.66;;;14.66;79.47
78835;BME280;68187;42.682;23.352;2023-05-28T01:34:09;95013.69;;;14.53;79.47
78835;BME280;68187;42.682;23.352;2023-05-28T01:36:41;95023.06;;;14.64;79.49
78835;BME280;68187;42.682;23.352;2023-05-28T01:39:08;95026.03;;;14.62;79.24
78835;BME280;68187;42.682;23.352;2023-05-28T01:41:39;95026.59;;;14.59;79.77
78835;BME280;68187;42.682;23.352;2023-05-28T01:44:06;95020.78;;;14.57;80.05
78835;BME280;68187;42.682;23.352;2023-05-28T01:46:34;95020.97;;;14.61;79.87
78835;BME280;68187;42.682;23.352;2023-05-28T01:49:01;95014.03;;;14.65;79.64
78835;BME280;68187;42.682;23.352;2023-05-28T01:51:28;95004.44;;;14.64;79.31
78835;BME280;68187;42.682;23.352;2023-05-28T01:53:55;95014.78;;;14.65;78.98
78835;BME280;68187;42.682;23.352;2023-05-28T01:56:21;95005.81;;;14.61;78.97
78835;BME280;68187;42.682;23.352;2023-05-28T01:58:49;95008.47;;;14.61;78.98
78835;BME280;68187;42.682;23.352;2023-05-28T02:01:20;95010.16;;;14.57;79.06
78835;BME280;68187;42.682;23.352;2023-05-28T02:03:53;95008.56;;;14.56;79.14
78835;BME280;68187;42.682;23.352;2023-05-28T02:06:19;95010.72;;;14.54;79.27
78835;BME280;68187;42.682;23.352;2023-05-28T02:08:46;95014.41;;;14.58;79.37
78835;BME280;68187;42.682;23.352;2023-05-28T02:11:13;95015.66;;;14.61;79.62
78835;BME280;68187;42.682;23.352;2023-05-28T02:13:39;95020.47;;;14.59;79.82
78835;BME280;68187;42.682;23.352;2023-05-28T02:16:07;94990.94;;;14.47;79.80
78835;BME280;68187;42.682;23.352;2023-05-28T02:18:36;95015.66;;;14.61;79.39
78835;BME280;68187;42.682;23.352;2023-05-28T02:21:03;95009.34;;;14.57;80.50
78835;BME280;68187;42.682;23.352;2023-05-28T02:23:31;95009.84;;;14.59;80.17
78835;BME280;68187;42.682;23.352;2023-05-28T02:25:58;95011.81;;;14.53;80.12
78835;BME280;68187;42.682;23.352;2023-05-28T02:28:26;95027.69;;;14.58;79.73
78835;BME280;68187;42.682;23.352;2023-05-28T02:30:53;95009.53;;;14.47;79.82
78835;BME280;68187;42.682;23.352;2023-05-28T02:33:21;94999.78;;;14.42;79.96
78835;BME280;68187;42.682;23.352;2023-05-28T02:35:48;95024.72;;;14.60;79.67
78835;BME280;68187;42.682;23.352;2023-05-28T02:38:14;95028.06;;;14.65;78.46
78835;BME280;68187;42.682;23.352;2023-05-28T02:40:41;95026.28;;;14.61;79.04
78835;BME280;68187;42.682;23.352;2023-05-28T02:43:08;95014.91;;;14.60;78.67
78835;BME280;68187;42.682;23.352;2023-05-28T02:45:35;95018.63;;;14.59;78.73
78835;BME280;68187;42.682;23.352;2023-05-28T02:48:02;95006.78;;;14.52;78.88
78835;BME280;68187;42.682;23.352;2023-05-28T02:50:30;95012.72;;;14.62;78.40
78835;BME280;68187;42.682;23.352;2023-05-28T02:52:57;95024.03;;;14.68;78.64
78835;BME280;68187;42.682;23.352;2023-05-28T02:55:24;95010.88;;;14.63;79.13
78835;BME280;68187;42.682;23.352;2023-05-28T02:57:50;95022.75;;;14.65;79.55
78835;BME280;68187;42.682;23.352;2023-05-28T03:00:18;95011.63;;;14.63;79.54
78835;BME280;68187;42.682;23.352;2023-05-28T03:02:45;95020.63;;;14.67;79.59
78835;BME280;68187;42.682;23.352;2023-05-28T03:05:11;95026.44;;;14.69;78.67
78835;BME280;68187;42.682;23.352;2023-05-28T03:07:39;95016.19;;;14.63;79.10
78835;BME280;68187;42.682;23.352;2023-05-28T03:10:07;94994.50;;;14.56;78.71
78835;BME280;68187;42.682;23.352;2023-05-28T03:12:33;95024.75;;;14.73;78.44
78835;BME280;68187;42.682;23.352;2023-05-28T03:15:01;95020.25;;;14.74;78.82
78835;BME280;68187;42.682;23.352;2023-05-28T03:17:29;95021.53;;;14.76;78.19
78835;BME280;68187;42.682;23.352;2023-05-28T03:19:55;95024.75;;;14.73;79.07
78835;BME280;68187;42.682;23.352;2023-05-28T03:22:22;95019.75;;;14.72;78.44
78835;BME280;68187;42.682;23.352;2023-05-28T03:24:50;95014.59;;;14.62;79.28
78835;BME280;68187;42.682;23.352;2023-05-28T03:27:17;95027.19;;;14.70;79.72
78835;BME280;68187;42.682;23.352;2023-05-28T03:29:44;95033.81;;;14.72;79.25
78835;BME280;68187;42.682;23.352;2023-05-28T03:32:11;95026.31;;;14.74;79.07
78835;BME280;68187;42.682;23.352;2023-05-28T03:34:37;95023.97;;;14.73;79.32
78835;BME280;68187;42.682;23.352;2023-05-28T03:37:04;95026.84;;;14.76;78.67
78835;BME280;68187;42.682;23.352;2023-05-28T03:39:31;95031.28;;;14.81;78.42
78835;BME280;68187;42.682;23.352;2023-05-28T03:41:59;95029.59;;;14.85;78.20
78835;BME280;68187;42.682;23.352;2023-05-28T03:44:26;95028.31;;;14.82;78.67
78835;BME280;68187;42.682;23.352;2023-05-28T03:46:53;95027.84;;;14.80;78.68
78835;BME280;68187;42.682;23.352;2023-05-28T03:49:20;95031.84;;;14.78;78.77
78835;BME280;68187;42.682;23.352;2023-05-28T03:51:47;95035.88;;;14.75;78.98
78835;BME280;68187;42.682;23.352;2023-05-28T03:54:13;95028.41;;;14.77;78.98
78835;BME280;68187;42.682;23.352;2023-05-28T03:56:40;95033.34;;;14.84;78.59
78835;BME280;68187;42.682;23.352;2023-05-28T03:59:08;95029.38;;;14.81;78.68
78835;BME280;68187;42.682;23.352;2023-05-28T04:01:35;95028.91;;;14.79;79.17
78835;BME280;68187;42.682;23.352;2023-05-28T04:04:02;95030.97;;;14.82;78.29
78835;BME280;68187;42.682;23.352;2023-05-28T04:06:29;95024.28;;;14.85;78.57
78835;BME280;68187;42.682;23.352;2023-05-28T04:08:56;95029.00;;;14.88;79.26
78835;BME280;68187;42.682;23.352;2023-05-28T04:11:22;95034.03;;;14.89;79.93
78835;BME280;68187;42.682;23.352;2023-05-28T04:13:50;95030.91;;;14.87;80.08
78835;BME280;68187;42.682;23.352;2023-05-28T04:16:18;95038.19;;;14.95;80.11
78835;BME280;68187;42.682;23.352;2023-05-28T04:18:48;95041.06;;;14.99;80.57
78835;BME280;68187;42.682;23.352;2023-05-28T04:21:14;95046.66;;;14.97;80.53
78835;BME280;68187;42.682;23.352;2023-05-28T04:23:41;95035.22;;;14.97;80.67
78835;BME280;68187;42.682;23.352;2023-05-28T04:26:08;95037.13;;;14.96;80.91
78835;BME280;68187;42.682;23.352;2023-05-28T04:28:35;95040.19;;;15.04;80.60
78835;BME280;68187;42.682;23.352;2023-05-28T04:31:02;95031.19;;;14.99;80.81
78835;BME280;68187;42.682;23.352;2023-05-28T04:33:31;95043.41;;;15.00;80.73
78835;BME280;68187;42.682;23.352;2023-05-28T04:35:58;95035.03;;;14.93;81.04
78835;BME280;68187;42.682;23.352;2023-05-28T04:38:26;95044.41;;;15.05;80.90
78835;BME280;68187;42.682;23.352;2023-05-28T04:40:54;95033.28;;;15.02;81.07
78835;BME280;68187;42.682;23.352;2023-05-28T04:43:21;95045.28;;;15.14;81.18
78835;BME280;68187;42.682;23.352;2023-05-28T04:45:47;95039.66;;;15.15;81.25
78835;BME280;68187;42.682;23.352;2023-05-28T04:48:14;95046.78;;;15.20;81.07
78835;BME280;68187;42.682;23.352;2023-05-28T04:50:43;95047.56;;;15.20;81.47
78835;BME280;68187;42.682;23.352;2023-05-28T04:53:10;95046.19;;;15.23;81.32
78835;BME280;68187;42.682;23.352;2023-05-28T04:55:36;95049.94;;;15.22;80.93
78835;BME280;68187;42.682;23.352;2023-05-28T04:58:05;95049.94;;;15.22;80.88
78835;BME280;68187;42.682;23.352;2023-05-28T05:00:33;95047.78;;;15.24;79.13
78835;BME280;68187;42.682;23.352;2023-05-28T05:03:00;95044.22;;;15.28;81.20
78835;BME280;68187;42.682;23.352;2023-05-28T05:05:27;95042.06;;;15.30;81.14
78835;BME280;68187;42.682;23.352;2023-05-28T05:07:55;95050.84;;;15.31;80.51
78835;BME280;68187;42.682;23.352;2023-05-28T05:10:21;95054.00;;;15.33;79.95
78835;BME280;68187;42.682;23.352;2023-05-28T05:12:48;95039.88;;;15.32;81.04
78835;BME280;68187;42.682;23.352;2023-05-28T05:15:15;95049.34;;;15.38;80.97
78835;BME280;68187;42.682;23.352;2023-05-28T05:17:42;95042.47;;;15.37;81.42
78835;BME280;68187;42.682;23.352;2023-05-28T05:20:09;95038.41;;;15.40;81.20
78835;BME280;68187;42.682;23.352;2023-05-28T05:22:36;95037.75;;;15.48;80.59
78835;BME280;68187;42.682;23.352;2023-05-28T05:25:05;95026.31;;;15.47;80.06
78835;BME280;68187;42.682;23.352;2023-05-28T05:27:34;95007.75;;;15.42;81.26
78835;BME280;68187;42.682;23.352;2023-05-28T05:30:01;95034.75;;;15.63;80.29
78835;BME280;68187;42.682;23.352;2023-05-28T05:32:28;95037.63;;;15.66;79.88
78835;BME280;68187;42.682;23.352;2023-05-28T05:34:54;95031.59;;;15.75;78.08
78835;BME280;68187;42.682;23.352;2023-05-28T05:37:21;95030.22;;;15.77;76.77
78835;BME280;68187;42.682;23.352;2023-05-28T05:39:48;95029.13;;;15.78;76.67
78835;BME280;68187;42.682;23.352;2023-05-28T05:42:16;95030.59;;;15.84;75.84
78835;BME280;68187;42.682;23.352;2023-05-28T05:44:43;95034.72;;;15.90;75.97
78835;BME280;68187;42.682;23.352;2023-05-28T05:47:10;95027.22;;;15.92;75.84
78835;BME280;68187;42.682;23.352;2023-05-28T05:49:37;95026.63;;;15.95;76.00
78835;BME280;68187;42.682;23.352;2023-05-28T05:52:04;95036.38;;;16.00;75.00
78835;BME280;68187;42.682;23.352;2023-05-28T05:54:31;95030.25;;;15.99;75.50
78835;BME280;68187;42.682;23.352;2023-05-28T05:56:57;95044.56;;;16.03;76.58
78835;BME280;68187;42.682;23.352;2023-05-28T05:59:25;95032.00;;;16.04;77.89
78835;BME280;68187;42.682;23.352;2023-05-28T06:01:52;95042.38;;;16.05;78.42
78835;BME280;68187;42.682;23.352;2023-05-28T06:04:19;95041.09;;;16.03;78.41
78835;BME280;68187;42.682;23.352;2023-05-28T06:06:45;95039.25;;;16.03;78.65
78835;BME280;68187;42.682;23.352;2023-05-28T06:09:12;95038.13;;;16.04;75.76
78835;BME280;68187;42.682;23.352;2023-05-28T06:11:39;95045.22;;;16.09;76.12
78835;BME280;68187;42.682;23.352;2023-05-28T06:14:05;95046.97;;;16.13;76.30
78835;BME280;68187;42.682;23.352;2023-05-28T06:16:34;95038.41;;;16.16;75.94
78835;BME280;68187;42.682;23.352;2023-05-28T06:19:00;95043.63;;;16.21;75.57
78835;BME280;68187;42.682;23.352;2023-05-28T06:21:27;95043.63;;;16.21;74.21
78835;BME280;68187;42.682;23.352;2023-05-28T06:23:54;95048.31;;;16.24;75.86
78835;BME280;68187;42.682;23.352;2023-05-28T06:26:20;95048.16;;;16.21;74.10
78835;BME280;68187;42.682;23.352;2023-05-28T06:28:47;95048.25;;;16.16;75.45
78835;BME280;68187;42.682;23.352;2023-05-28T06:31:14;95053.91;;;16.14;75.25
78835;BME280;68187;42.682;23.352;2023-05-28T06:33:42;95046.59;;;16.06;75.53
78835;BME280;68187;42.682;23.352;2023-05-28T06:36:09;95053.31;;;16.04;76.31
78835;BME280;68187;42.682;23.352;2023-05-28T06:38:36;95052.84;;;16.02;77.47
78835;BME280;68187;42.682;23.352;2023-05-28T06:41:03;95059.28;;;16.01;78.49
78835;BME280;68187;42.682;23.352;2023-05-28T06:43:29;95057.19;;;15.98;78.29
78835;BME280;68187;42.682;23.352;2023-05-28T06:45:56;95061.72;;;15.97;78.20
78835;BME280;68187;42.682;23.352;2023-05-28T06:48:23;95060.28;;;15.91;78.83
78835;BME280;68187;42.682;23.352;2023-05-28T06:50:51;95057.13;;;15.89;79.56
78835;BME280;68187;42.682;23.352;2023-05-28T06:53:18;95060.75;;;15.93;79.80
78835;BME280;68187;42.682;23.352;2023-05-28T06:55:44;95056.88;;;15.99;80.37
78835;BME280;68187;42.682;23.352;2023-05-28T06:58:11;95066.06;;;16.07;79.92
78835;BME280;68187;42.682;23.352;2023-05-28T07:00:38;95054.91;;;16.05;78.48
78835;BME280;68187;42.682;23.352;2023-05-28T07:03:04;95057.53;;;16.18;78.78
78835;BME280;68187;42.682;23.352;2023-05-28T07:05:31;95061.47;;;16.21;79.39
78835;BME280;68187;42.682;23.352;2023-05-28T07:08:02;95064.16;;;16.21;78.47
78835;BME280;68187;42.682;23.352;2023-05-28T07:10:28;95063.66;;;16.19;77.94
78835;BME280;68187;42.682;23.352;2023-05-28T07:12:55;95063.13;;;16.30;77.60
78835;BME280;68187;42.682;23.352;2023-05-28T07:15:22;95051.63;;;16.43;77.54
78835;BME280;68187;42.682;23.352;2023-05-28T07:17:48;95059.75;;;16.61;77.05
78835;BME280;68187;42.682;23.352;2023-05-28T07:20:15;95052.81;;;16.73;76.03
78835;BME280;68187;42.682;23.352;2023-05-28T07:22:42;95049.22;;;16.78;75.00
78835;BME280;68187;42.682;23.352;2023-05-28T07:25:10;95050.84;;;16.87;73.95
78835;BME280;68187;42.682;23.352;2023-05-28T07:27:37;95066.44;;;16.94;74.44
78835;BME280;68187;42.682;23.352;2023-05-28T07:30:04;95059.53;;;17.01;74.22
78835;BME280;68187;42.682;23.352;2023-05-28T07:32:31;95045.28;;;17.06;73.35
78835;BME280;68187;42.682;23.352;2023-05-28T07:34:58;95043.84;;;17.00;72.62
78835;BME280;68187;42.682;23.352;2023-05-28T07:37:25;95051.53;;;17.01;72.42
78835;BME280;68187;42.682;23.352;2023-05-28T07:39:51;95048.09;;;17.01;72.67
78835;BME280;68187;42.682;23.352;2023-05-28T07:42:19;95049.84;;;17.05;73.81
78835;BME280;68187;42.682;23.352;2023-05-28T07:44:46;95042.41;;;16.94;72.45
78835;BME280;68187;42.682;23.352;2023-05-28T07:47:13;95047.75;;;16.94;73.58
78835;BME280;68187;42.682;23.352;2023-05-28T07:49:41;95040.81;;;16.93;73.36
78835;BME280;68187;42.682;23.352;2023-05-28T07:52:07;95046.78;;;16.90;73.12
78835;BME280;68187;42.682;23.352;2023-05-28T07:54:34;95035.13;;;16.86;72.75
78835;BME280;68187;42.682;23.352;2023-05-28T07:57:01;95030.19;;;16.71;72.91
78835;BME280;68187;42.682;23.352;2023-05-28T07:59:29;95043.69;;;16.74;73.96
78835;BME280;68187;42.682;23.352;2023-05-28T08:01:56;95041.34;;;16.73;74.49
78835;BME280;68187;42.682;23.352;2023-05-28T08:04:23;95041.66;;;16.71;73.92
78835;BME280;68187;42.682;23.352;2023-05-28T08:06:50;95027.06;;;16.69;73.70
78835;BME280;68187;42.682;23.352;2023-05-28T08:09:16;95016.38;;;16.69;73.74
78835;BME280;68187;42.682;23.352;2023-05-28T08:11:43;95037.50;;;16.87;73.27
78835;BME280;68187;42.682;23.352;2023-05-28T08:14:10;95040.81;;;16.93;73.35
78835;BME280;68187;42.682;23.352;2023-05-28T08:16:38;95045.38;;;16.92;73.32
78835;BME280;68187;42.682;23.352;2023-05-28T08:19:04;95050.22;;;16.90;73.26
78835;BME280;68187;42.682;23.352;2023-05-28T08:21:31;95048.00;;;16.84;73.22
78835;BME280;68187;42.682;23.352;2023-05-28T08:23:58;95040.00;;;16.84;73.17
78835;BME280;68187;42.682;23.352;2023-05-28T08:26:24;95029.69;;;16.91;72.35
78835;BME280;68187;42.682;23.352;2023-05-28T08:28:51;95044.50;;;17.05;71.83
78835;BME280;68187;42.682;23.352;2023-05-28T08:31:18;95033.75;;;17.19;72.07
78835;BME280;68187;42.682;23.352;2023-05-28T08:33:46;95052.59;;;17.53;72.11
78835;BME280;68187;42.682;23.352;2023-05-28T08:36:13;95044.47;;;17.67;71.29
78835;BME280;68187;42.682;23.352;2023-05-28T08:38:40;95044.94;;;17.77;68.99
78835;BME280;68187;42.682;23.352;2023-05-28T08:41:07;95045.91;;;17.81;69.61
78835;BME280;68187;42.682;23.352;2023-05-28T08:43:34;95027.84;;;17.96;69.28
78835;BME280;68187;42.682;23.352;2023-05-28T08:46:01;95044.22;;;18.28;68.61
78835;BME280;68187;42.682;23.352;2023-05-28T08:48:28;95039.22;;;18.52;66.63
78835;BME280;68187;42.682;23.352;2023-05-28T08:51:00;95037.16;;;18.67;65.95
78835;BME280;68187;42.682;23.352;2023-05-28T08:53:31;95029.44;;;18.65;67.25
78835;BME280;68187;42.682;23.352;2023-05-28T08:55:58;95038.56;;;18.64;66.46
78835;BME280;68187;42.682;23.352;2023-05-28T08:58:26;95034.16;;;18.68;65.24
78835;BME280;68187;42.682;23.352;2023-05-28T09:00:52;95035.22;;;18.84;64.04
78835;BME280;68187;42.682;23.352;2023-05-28T09:03:19;95030.34;;;18.86;64.90
78835;BME280;68187;42.682;23.352;2023-05-28T09:05:46;95026.72;;;18.82;64.37
78835;BME280;68187;42.682;23.352;2023-05-28T09:08:14;95034.63;;;18.70;64.36
78835;BME280;68187;42.682;23.352;2023-05-28T09:10:40;95023.97;;;18.53;65.37
78835;BME280;68187;42.682;23.352;2023-05-28T09:13:07;95038.41;;;18.43;65.11
78835;BME280;68187;42.682;23.352;2023-05-28T09:15:34;95023.28;;;18.22;66.43
78835;BME280;68187;42.682;23.352;2023-05-28T09:18:03;95025.50;;;18.11;65.08
78835;BME280;68187;42.682;23.352;2023-05-28T09:20:30;95022.34;;;18.01;66.35
78835;BME280;68187;42.682;23.352;2023-05-28T09:22:58;95018.88;;;17.92;66.63
78835;BME280;68187;42.682;23.352;2023-05-28T09:25:27;95019.97;;;17.82;67.71
78835;BME280;68187;42.682;23.352;2023-05-28T09:27:56;95018.88;;;17.92;67.44
78835;BME280;68187;42.682;23.352;2023-05-28T09:30:25;95005.66;;;17.87;66.20
78835;BME280;68187;42.682;23.352;2023-05-28T09:33:00;95025.03;;;18.01;66.28
78835;BME280;68187;42.682;23.352;2023-05-28T09:35:28;95025.97;;;18.05;66.82
78835;BME280;68187;42.682;23.352;2023-05-28T09:38:02;95020.31;;;17.98;64.27
78835;BME280;68187;42.682;23.352;2023-05-28T09:40:31;95025.63;;;17.89;64.51
78835;BME280;68187;42.682;23.352;2023-05-28T09:42:58;95036.47;;;17.84;65.71
78835;BME280;68187;42.682;23.352;2023-05-28T09:45:26;95031.28;;;17.79;65.81
78835;BME280;68187;42.682;23.352;2023-05-28T09:47:53;95045.88;;;17.73;66.38
78835;BME280;68187;42.682;23.352;2023-05-28T09:50:20;95041.47;;;17.68;67.26
78835;BME280;68187;42.682;23.352;2023-05-28T09:52:47;95041.94;;;17.70;67.44
78835;BME280;68187;42.682;23.352;2023-05-28T09:55:15;95050.88;;;17.66;67.65
78835;BME280;68187;42.682;23.352;2023-05-28T09:58:00;95033.44;;;17.60;68.02
78835;BME280;68187;42.682;23.352;2023-05-28T10:00:30;95039.28;;;17.70;67.81
78835;BME280;68187;42.682;23.352;2023-05-28T10:03:05;95038.06;;;17.85;67.81
78835;BME280;68187;42.682;23.352;2023-05-28T10:05:36;95029.56;;;17.92;67.39
78835;BME280;68187;42.682;23.352;2023-05-28T10:08:07;95032.41;;;18.04;66.93
78835;BME280;68187;42.682;23.352;2023-05-28T10:10:37;95044.22;;;18.11;67.50
78835;BME280;68187;42.682;23.352;2023-05-28T10:13:06;95041.53;;;18.11;65.23
78835;BME280;68187;42.682;23.352;2023-05-28T10:15:35;95037.13;;;18.07;64.04
78835;BME280;68187;42.682;23.352;2023-05-28T10:18:02;95042.94;;;18.09;64.61
78835;BME280;68187;42.682;23.352;2023-05-28T10:20:29;95039.81;;;18.32;65.15
78835;BME280;68187;42.682;23.352;2023-05-28T10:22:56;95041.88;;;18.78;65.74
78835;BME280;68187;42.682;23.352;2023-05-28T10:25:24;95040.50;;;19.18;63.88
78835;BME280;68187;42.682;23.352;2023-05-28T10:27:57;95028.94;;;19.27;62.83
78835;BME280;68187;42.682;23.352;2023-05-28T10:30:33;95028.13;;;19.35;63.97
78835;BME280;68187;42.682;23.352;2023-05-28T10:33:03;95004.44;;;19.54;63.06
78835;BME280;68187;42.682;23.352;2023-05-28T10:35:31;95018.75;;;19.87;60.90
78835;BME280;68187;42.682;23.352;2023-05-28T10:38:05;95023.06;;;20.00;61.37
78835;BME280;68187;42.682;23.352;2023-05-28T10:40:33;95026.75;;;20.16;61.91
78835;BME280;68187;42.682;23.352;2023-05-28T10:43:01;95015.97;;;20.25;61.61
78835;BME280;68187;42.682;23.352;2023-05-28T10:45:36;95019.16;;;20.18;59.51
78835;BME280;68187;42.682;23.352;2023-05-28T10:48:03;95017.91;;;19.95;58.58
78835;BME280;68187;42.682;23.352;2023-05-28T10:50:30;95021.06;;;19.68;60.28
78835;BME280;68187;42.682;23.352;2023-05-28T10:53:04;95014.28;;;19.41;61.96
78835;BME280;68187;42.682;23.352;2023-05-28T10:55:47;95004.00;;;19.05;61.51
78835;BME280;68187;42.682;23.352;2023-05-28T10:58:23;95014.25;;;18.95;62.33
78835;BME280;68187;42.682;23.352;2023-05-28T11:00:51;95007.19;;;18.90;63.80
78835;BME280;68187;42.682;23.352;2023-05-28T11:03:42;95011.13;;;18.93;62.91
78835;BME280;68187;42.682;23.352;2023-05-28T11:06:10;94988.59;;;18.94;62.57
78835;BME280;68187;42.682;23.352;2023-05-28T11:08:40;95006.84;;;19.00;62.02
78835;BME280;68187;42.682;23.352;2023-05-28T11:11:06;95000.09;;;18.86;60.54
78835;BME280;68187;42.682;23.352;2023-05-28T11:13:33;95001.53;;;18.83;63.55
78835;BME280;68187;42.682;23.352;2023-05-28T11:16:08;95002.75;;;19.03;63.33
78835;BME280;68187;42.682;23.352;2023-05-28T11:18:35;94994.06;;;19.14;62.14
78835;BME280;68187;42.682;23.352;2023-05-28T11:21:03;95006.19;;;19.12;62.13
78835;BME280;68187;42.682;23.352;2023-05-28T11:23:30;95004.94;;;19.09;61.45
78835;BME280;68187;42.682;23.352;2023-05-28T11:25:57;94999.44;;;18.97;61.58
78835;BME280;68187;42.682;23.352;2023-05-28T11:28:24;94998.06;;;18.91;62.20
78835;BME280;68187;42.682;23.352;2023-05-28T11:30:50;94997.44;;;18.86;62.27
78835;BME280;68187;42.682;23.352;2023-05-28T11:33:19;95000.44;;;18.84;60.12
78835;BME280;68187;42.682;23.352;2023-05-28T11:35:45;94995.88;;;18.85;61.32
78835;BME280;68187;42.682;23.352;2023-05-28T11:38:21;94995.38;;;18.91;61.25
78835;BME280;68187;42.682;23.352;2023-05-28T11:40:48;94988.91;;;18.92;60.15
78835;BME280;68187;42.682;23.352;2023-05-28T11:43:15;94975.59;;;18.75;61.77
78835;BME280;68187;42.682;23.352;2023-05-28T11:45:42;94989.88;;;18.88;61.18
78835;BME280;68187;42.682;23.352;2023-05-28T11:48:11;94976.19;;;18.89;64.15
78835;BME280;68187;42.682;23.352;2023-05-28T11:50:39;94983.41;;;18.89;60.42
78835;BME280;68187;42.682;23.352;2023-05-28T11:53:05;94988.00;;;18.80;62.47
78835;BME280;68187;42.682;23.352;2023-05-28T11:55:32;94992.28;;;18.81;63.99
78835;BME280;68187;42.682;23.352;2023-05-28T11:57:59;94981.72;;;18.84;62.91
78835;BME280;68187;42.682;23.352;2023-05-28T12:00:30;94990.66;;;18.88;61.77
78835;BME280;68187;42.682;23.352;2023-05-28T12:02:59;94979.28;;;19.00;62.16
78835;BME280;68187;42.682;23.352;2023-05-28T12:05:26;94991.22;;;19.11;61.80
78835;BME280;68187;42.682;23.352;2023-05-28T12:07:54;94979.53;;;19.15;61.48
78835;BME280;68187;42.682;23.352;2023-05-28T12:10:22;94983.06;;;19.07;60.45
78835;BME280;68187;42.682;23.352;2023-05-28T12:12:55;94972.84;;;18.92;63.04
78835;BME280;68187;42.682;23.352;2023-05-28T12:15:23;94962.81;;;18.89;61.81
78835;BME280;68187;42.682;23.352;2023-05-28T12:17:52;94976.78;;;18.95;62.10
78835;BME280;68187;42.682;23.352;2023-05-28T12:20:29;94981.03;;;18.96;61.47
78835;BME280;68187;42.682;23.352;2023-05-28T12:23:02;94983.56;;;18.92;61.79
78835;BME280;68187;42.682;23.352;2023-05-28T12:25:47;94981.66;;;18.93;63.11
78835;BME280;68187;42.682;23.352;2023-05-28T12:28:15;94989.53;;;18.98;62.43
78835;BME280;68187;42.682;23.352;2023-05-28T12:30:43;94983.56;;;19.01;62.03
78835;BME280;68187;42.682;23.352;2023-05-28T12:33:11;94978.50;;;19.08;60.85
78835;BME280;68187;42.682;23.352;2023-05-28T12:35:38;94984.91;;;19.15;60.74
78835;BME280;68187;42.682;23.352;2023-05-28T12:38:06;94989.09;;;19.25;59.89
78835;BME280;68187;42.682;23.352;2023-05-28T12:40:33;94990.38;;;19.28;60.73
78835;BME280;68187;42.682;23.352;2023-05-28T12:43:00;94966.72;;;19.30;60.02
78835;BME280;68187;42.682;23.352;2023-05-28T12:45:28;94978.81;;;19.44;61.06
78835;BME280;68187;42.682;23.352;2023-05-28T12:47:55;94980.66;;;19.52;59.93
78835;BME280;68187;42.682;23.352;2023-05-28T12:50:21;94984.44;;;19.51;60.08
78835;BME280;68187;42.682;23.352;2023-05-28T12:52:48;94965.38;;;19.53;60.75